sensor_id;sensor_type;location;lat;lon;timestamp;P1;durP1;ratioP1;P2;durP2;ratioP2
1799;SDS011;919;48.274;12.292;2023-05-07T00:02:03;3.80;;;3.50;;
1799;SDS011;919;48.274;12.292;2023-05-07T00:04:29;3.07;;;2.60;;
1799;SDS011;919;48.274;12.292;2023-05-07T00:07:02;2.80;;;2.60;;
1799;SDS011;919;48.274;12.292;2023-05-07T00:09:29;3.40;;;3.20;;
1799;SDS011;919;48.274;12.292;2023-05-07T00:11:55;3.30;;;3.10;;
1799;SDS011;919;48.274;12.292;2023-05-07T00:14:22;3.00;;;2.80;;
1799;SDS011;919;48.274;12.292;2023-05-07T00:16:49;2.70;;;2.50;;
1799;SDS011;919;48.274;12.292;2023-05-07T00:19:15;5.50;;;2.63;;
1799;SDS011;919;48.274;12.292;2023-05-07T00:21:42;4.03;;;3.00;;
1799;SDS011;919;48.274;12.292;2023-05-07T00:24:10;3.40;;;3.10;;
1799;SDS011;919;48.274;12.292;2023-05-07T00:26:37;3.50;;;3.30;;
1799;SDS011;919;48.274;12.292;2023-05-07T00:29:04;3.53;;;3.30;;
1799;SDS011;919;48.274;12.292;2023-05-07T00:31:30;3.47;;;3.17;;
1799;SDS011;919;48.274;12.292;2023-05-07T00:33:57;3.13;;;2.90;;
1799;SDS011;919;48.274;12.292;2023-05-07T00:36:24;2.87;;;2.57;;
1799;SDS011;919;48.274;12.292;2023-05-07T00:38:51;3.00;;;2.70;;
1799;SDS011;919;48.274;12.292;2023-05-07T00:41:19;2.47;;;2.27;;
1799;SDS011;919;48.274;12.292;2023-05-07T00:43:46;2.40;;;2.20;;
1799;SDS011;919;48.274;12.292;2023-05-07T00:46:13;2.70;;;2.50;;
1799;SDS011;919;48.274;12.292;2023-05-07T00:48:40;3.17;;;2.80;;
1799;SDS011;919;48.274;12.292;2023-05-07T00:51:07;3.37;;;3.07;;
1799;SDS011;919;48.274;12.292;2023-05-07T00:53:36;3.27;;;2.97;;
1799;SDS011;919;48.274;12.292;2023-05-07T00:56:03;3.97;;;3.23;;
1799;SDS011;919;48.274;12.292;2023-05-07T00:58:32;2.97;;;2.77;;
1799;SDS011;919;48.274;12.292;2023-05-07T01:00:59;3.60;;;3.30;;
1799;SDS011;919;48.274;12.292;2023-05-07T01:03:26;3.33;;;3.13;;
1799;SDS011;919;48.274;12.292;2023-05-07T01:05:53;3.37;;;3.07;;
1799;SDS011;919;48.274;12.292;2023-05-07T01:08:23;3.27;;;2.97;;
1799;SDS011;919;48.274;12.292;2023-05-07T01:10:53;5.83;;;3.17;;
1799;SDS011;919;48.274;12.292;2023-05-07T01:13:20;4.07;;;2.90;;
1799;SDS011;919;48.274;12.292;2023-05-07T01:15:48;3.40;;;2.90;;
1799;SDS011;919;48.274;12.292;2023-05-07T01:18:15;7.20;;;2.63;;
1799;SDS011;919;48.274;12.292;2023-05-07T01:20:42;2.73;;;2.53;;
1799;SDS011;919;48.274;12.292;2023-05-07T01:23:11;3.03;;;2.83;;
1799;SDS011;919;48.274;12.292;2023-05-07T01:25:38;3.50;;;3.20;;
1799;SDS011;919;48.274;12.292;2023-05-07T01:28:04;3.83;;;3.53;;
1799;SDS011;919;48.274;12.292;2023-05-07T01:30:31;3.27;;;3.03;;
1799;SDS011;919;48.274;12.292;2023-05-07T01:33:01;3.57;;;3.27;;
1799;SDS011;919;48.274;12.292;2023-05-07T01:35:34;2.80;;;2.70;;
1799;SDS011;919;48.274;12.292;2023-05-07T01:38:03;7.13;;;3.17;;
1799;SDS011;919;48.274;12.292;2023-05-07T01:40:32;4.83;;;3.20;;
1799;SDS011;919;48.274;12.292;2023-05-07T01:43:00;3.40;;;3.10;;
1799;SDS011;919;48.274;12.292;2023-05-07T01:45:27;2.90;;;2.70;;
1799;SDS011;919;48.274;12.292;2023-05-07T01:47:55;3.73;;;2.73;;
1799;SDS011;919;48.274;12.292;2023-05-07T01:50:23;2.67;;;2.47;;
1799;SDS011;919;48.274;12.292;2023-05-07T01:52:52;2.90;;;2.70;;
1799;SDS011;919;48.274;12.292;2023-05-07T01:55:18;2.30;;;2.20;;
1799;SDS011;919;48.274;12.292;2023-05-07T01:57:47;4.33;;;3.00;;
1799;SDS011;919;48.274;12.292;2023-05-07T02:00:13;2.67;;;2.50;;
1799;SDS011;919;48.274;12.292;2023-05-07T02:02:40;2.93;;;2.73;;
1799;SDS011;919;48.274;12.292;2023-05-07T02:05:08;3.40;;;3.13;;
1799;SDS011;919;48.274;12.292;2023-05-07T02:07:35;3.03;;;2.80;;
1799;SDS011;919;48.274;12.292;2023-05-07T02:10:02;3.20;;;2.90;;
1799;SDS011;919;48.274;12.292;2023-05-07T02:12:29;3.20;;;2.90;;
1799;SDS011;919;48.274;12.292;2023-05-07T02:14:57;3.10;;;2.33;;
1799;SDS011;919;48.274;12.292;2023-05-07T02:17:23;3.33;;;2.63;;
1799;SDS011;919;48.274;12.292;2023-05-07T02:19:50;3.83;;;2.70;;
1799;SDS011;919;48.274;12.292;2023-05-07T02:22:17;2.80;;;2.60;;
1799;SDS011;919;48.274;12.292;2023-05-07T02:24:44;2.77;;;2.57;;
1799;SDS011;919;48.274;12.292;2023-05-07T02:27:10;5.30;;;2.70;;
1799;SDS011;919;48.274;12.292;2023-05-07T02:29:37;3.10;;;2.43;;
1799;SDS011;919;48.274;12.292;2023-05-07T02:32:05;2.83;;;2.63;;
1799;SDS011;919;48.274;12.292;2023-05-07T02:34:32;3.63;;;3.10;;
1799;SDS011;919;48.274;12.292;2023-05-07T02:36:59;4.60;;;4.20;;
1799;SDS011;919;48.274;12.292;2023-05-07T02:39:25;3.03;;;2.83;;
1799;SDS011;919;48.274;12.292;2023-05-07T02:41:52;2.90;;;2.70;;
1799;SDS011;919;48.274;12.292;2023-05-07T02:44:19;2.80;;;2.60;;
1799;SDS011;919;48.274;12.292;2023-05-07T02:46:45;2.90;;;2.53;;
1799;SDS011;919;48.274;12.292;2023-05-07T02:49:13;2.50;;;2.30;;
1799;SDS011;919;48.274;12.292;2023-05-07T02:51:40;2.33;;;2.23;;
1799;SDS011;919;48.274;12.292;2023-05-07T02:54:07;2.73;;;2.10;;
1799;SDS011;919;48.274;12.292;2023-05-07T02:56:34;2.80;;;2.60;;
1799;SDS011;919;48.274;12.292;2023-05-07T02:59:00;1.83;;;1.73;;
1799;SDS011;919;48.274;12.292;2023-05-07T03:01:27;2.30;;;1.90;;
1799;SDS011;919;48.274;12.292;2023-05-07T03:03:54;6.43;;;2.43;;
1799;SDS011;919;48.274;12.292;2023-05-07T03:06:22;4.87;;;1.70;;
1799;SDS011;919;48.274;12.292;2023-05-07T03:08:49;2.50;;;2.30;;
1799;SDS011;919;48.274;12.292;2023-05-07T03:11:16;2.30;;;2.20;;
1799;SDS011;919;48.274;12.292;2023-05-07T03:13:43;3.17;;;2.70;;
1799;SDS011;919;48.274;12.292;2023-05-07T03:16:11;3.07;;;2.87;;
1799;SDS011;919;48.274;12.292;2023-05-07T03:18:37;2.63;;;2.43;;
1799;SDS011;919;48.274;12.292;2023-05-07T03:21:04;3.73;;;2.87;;
1799;SDS011;919;48.274;12.292;2023-05-07T03:23:32;2.53;;;2.33;;
1799;SDS011;919;48.274;12.292;2023-05-07T03:25:59;2.70;;;2.50;;
1799;SDS011;919;48.274;12.292;2023-05-07T03:28:26;2.33;;;2.13;;
1799;SDS011;919;48.274;12.292;2023-05-07T03:30:52;2.90;;;2.70;;
1799;SDS011;919;48.274;12.292;2023-05-07T03:33:19;2.93;;;2.40;;
1799;SDS011;919;48.274;12.292;2023-05-07T03:35:46;3.13;;;2.93;;
1799;SDS011;919;48.274;12.292;2023-05-07T03:38:12;3.30;;;2.93;;
1799;SDS011;919;48.274;12.292;2023-05-07T03:40:41;3.17;;;2.97;;
1799;SDS011;919;48.274;12.292;2023-05-07T03:43:07;2.70;;;2.50;;
1799;SDS011;919;48.274;12.292;2023-05-07T03:45:34;3.47;;;3.27;;
1799;SDS011;919;48.274;12.292;2023-05-07T03:48:01;3.43;;;3.13;;
1799;SDS011;919;48.274;12.292;2023-05-07T03:50:28;3.80;;;3.50;;
1799;SDS011;919;48.274;12.292;2023-05-07T03:52:55;4.80;;;3.60;;
1799;SDS011;919;48.274;12.292;2023-05-07T03:55:21;3.80;;;3.17;;
1799;SDS011;919;48.274;12.292;2023-05-07T03:57:50;4.00;;;3.70;;
1799;SDS011;919;48.274;12.292;2023-05-07T04:00:16;4.63;;;3.03;;
1799;SDS011;919;48.274;12.292;2023-05-07T04:02:45;2.60;;;2.40;;
1799;SDS011;919;48.274;12.292;2023-05-07T04:05:11;2.70;;;2.50;;
1799;SDS011;919;48.274;12.292;2023-05-07T04:07:40;2.60;;;2.40;;
1799;SDS011;919;48.274;12.292;2023-05-07T04:10:06;2.40;;;2.30;;
1799;SDS011;919;48.274;12.292;2023-05-07T04:12:34;2.37;;;2.20;;
1799;SDS011;919;48.274;12.292;2023-05-07T04:15:02;2.73;;;2.53;;
1799;SDS011;919;48.274;12.292;2023-05-07T04:17:29;2.90;;;2.80;;
1799;SDS011;919;48.274;12.292;2023-05-07T04:19:56;2.43;;;2.27;;
1799;SDS011;919;48.274;12.292;2023-05-07T04:22:22;2.37;;;2.27;;
1799;SDS011;919;48.274;12.292;2023-05-07T04:24:49;1.97;;;1.87;;
1799;SDS011;919;48.274;12.292;2023-05-07T04:27:16;2.90;;;2.60;;
1799;SDS011;919;48.274;12.292;2023-05-07T04:29:43;2.80;;;2.60;;
1799;SDS011;919;48.274;12.292;2023-05-07T04:32:13;2.40;;;2.30;;
1799;SDS011;919;48.274;12.292;2023-05-07T04:34:40;3.20;;;3.00;;
1799;SDS011;919;48.274;12.292;2023-05-07T04:37:06;3.80;;;3.50;;
1799;SDS011;919;48.274;12.292;2023-05-07T04:39:33;2.93;;;2.73;;
1799;SDS011;919;48.274;12.292;2023-05-07T04:42:00;3.97;;;3.67;;
1799;SDS011;919;48.274;12.292;2023-05-07T04:44:28;3.03;;;2.83;;
1799;SDS011;919;48.274;12.292;2023-05-07T04:46:56;2.73;;;2.53;;
1799;SDS011;919;48.274;12.292;2023-05-07T04:49:24;3.30;;;3.07;;
1799;SDS011;919;48.274;12.292;2023-05-07T04:51:50;3.20;;;2.97;;
1799;SDS011;919;48.274;12.292;2023-05-07T04:54:17;2.47;;;2.37;;
1799;SDS011;919;48.274;12.292;2023-05-07T04:56:44;3.00;;;2.80;;
1799;SDS011;919;48.274;12.292;2023-05-07T04:59:11;3.47;;;3.17;;
1799;SDS011;919;48.274;12.292;2023-05-07T05:01:37;2.73;;;2.53;;
1799;SDS011;919;48.274;12.292;2023-05-07T05:04:05;3.10;;;2.90;;
1799;SDS011;919;48.274;12.292;2023-05-07T05:06:33;2.60;;;2.40;;
1799;SDS011;919;48.274;12.292;2023-05-07T05:09:00;3.07;;;2.80;;
1799;SDS011;919;48.274;12.292;2023-05-07T05:11:26;3.40;;;3.20;;
1799;SDS011;919;48.274;12.292;2023-05-07T05:13:53;3.70;;;2.80;;
1799;SDS011;919;48.274;12.292;2023-05-07T05:16:20;3.60;;;3.33;;
1799;SDS011;919;48.274;12.292;2023-05-07T05:18:46;4.10;;;3.80;;
1799;SDS011;919;48.274;12.292;2023-05-07T05:21:13;4.07;;;3.77;;
1799;SDS011;919;48.274;12.292;2023-05-07T05:23:41;3.93;;;3.63;;
1799;SDS011;919;48.274;12.292;2023-05-07T05:26:08;3.20;;;2.90;;
1799;SDS011;919;48.274;12.292;2023-05-07T05:28:35;3.97;;;3.67;;
1799;SDS011;919;48.274;12.292;2023-05-07T05:31:01;3.83;;;3.53;;
1799;SDS011;919;48.274;12.292;2023-05-07T05:33:28;4.00;;;3.67;;
1799;SDS011;919;48.274;12.292;2023-05-07T05:35:55;4.37;;;3.97;;
1799;SDS011;919;48.274;12.292;2023-05-07T05:38:22;3.93;;;3.63;;
1799;SDS011;919;48.274;12.292;2023-05-07T05:40:50;5.07;;;4.63;;
1799;SDS011;919;48.274;12.292;2023-05-07T05:43:16;5.43;;;4.93;;
1799;SDS011;919;48.274;12.292;2023-05-07T05:45:43;6.97;;;6.20;;
1799;SDS011;919;48.274;12.292;2023-05-07T05:48:10;8.00;;;7.20;;
1799;SDS011;919;48.274;12.292;2023-05-07T05:50:37;8.13;;;6.30;;
1799;SDS011;919;48.274;12.292;2023-05-07T05:53:03;6.87;;;5.83;;
1799;SDS011;919;48.274;12.292;2023-05-07T05:55:30;7.47;;;6.87;;
1799;SDS011;919;48.274;12.292;2023-05-07T05:57:59;10.17;;;7.17;;
1799;SDS011;919;48.274;12.292;2023-05-07T06:00:26;6.80;;;6.20;;
1799;SDS011;919;48.274;12.292;2023-05-07T06:02:53;7.00;;;6.33;;
1799;SDS011;919;48.274;12.292;2023-05-07T06:05:20;8.97;;;7.50;;
1799;SDS011;919;48.274;12.292;2023-05-07T06:07:47;10.67;;;8.20;;
1799;SDS011;919;48.274;12.292;2023-05-07T06:10:14;8.53;;;7.73;;
1799;SDS011;919;48.274;12.292;2023-05-07T06:12:40;8.33;;;7.53;;
1799;SDS011;919;48.274;12.292;2023-05-07T06:15:09;9.20;;;8.00;;
1799;SDS011;919;48.274;12.292;2023-05-07T06:17:36;8.57;;;7.67;;
1799;SDS011;919;48.274;12.292;2023-05-07T06:20:05;8.60;;;7.70;;
1799;SDS011;919;48.274;12.292;2023-05-07T06:22:33;9.67;;;8.67;;
1799;SDS011;919;48.274;12.292;2023-05-07T06:25:00;8.40;;;7.60;;
1799;SDS011;919;48.274;12.292;2023-05-07T06:27:27;7.70;;;7.00;;
1799;SDS011;919;48.274;12.292;2023-05-07T06:29:54;7.80;;;7.10;;
1799;SDS011;919;48.274;12.292;2023-05-07T06:32:22;8.50;;;7.73;;
1799;SDS011;919;48.274;12.292;2023-05-07T06:34:49;7.83;;;7.03;;
1799;SDS011;919;48.274;12.292;2023-05-07T06:37:16;6.67;;;6.17;;
1799;SDS011;919;48.274;12.292;2023-05-07T06:39:42;7.70;;;7.00;;
1799;SDS011;919;48.274;12.292;2023-05-07T06:42:09;8.07;;;7.37;;
1799;SDS011;919;48.274;12.292;2023-05-07T06:44:36;8.77;;;7.90;;
1799;SDS011;919;48.274;12.292;2023-05-07T06:47:03;9.23;;;8.37;;
1799;SDS011;919;48.274;12.292;2023-05-07T06:49:31;9.20;;;8.30;;
1799;SDS011;919;48.274;12.292;2023-05-07T06:51:58;13.90;;;9.40;;
1799;SDS011;919;48.274;12.292;2023-05-07T06:54:25;9.97;;;8.93;;
1799;SDS011;919;48.274;12.292;2023-05-07T06:56:51;9.90;;;9.00;;
1799;SDS011;919;48.274;12.292;2023-05-07T06:59:18;9.90;;;9.00;;
1799;SDS011;919;48.274;12.292;2023-05-07T07:01:45;10.57;;;9.67;;
1799;SDS011;919;48.274;12.292;2023-05-07T07:04:12;10.37;;;9.47;;
1799;SDS011;919;48.274;12.292;2023-05-07T07:06:40;9.20;;;8.40;;
1799;SDS011;919;48.274;12.292;2023-05-07T07:09:06;10.67;;;9.77;;
1799;SDS011;919;48.274;12.292;2023-05-07T07:11:33;10.10;;;9.17;;
1799;SDS011;919;48.274;12.292;2023-05-07T07:14:00;10.33;;;9.43;;
1799;SDS011;919;48.274;12.292;2023-05-07T07:16:27;10.23;;;9.33;;
1799;SDS011;919;48.274;12.292;2023-05-07T07:18:54;10.60;;;9.50;;
1799;SDS011;919;48.274;12.292;2023-05-07T07:21:20;11.07;;;10.07;;
1799;SDS011;919;48.274;12.292;2023-05-07T07:23:48;10.77;;;9.73;;
1799;SDS011;919;48.274;12.292;2023-05-07T07:26:15;10.20;;;9.20;;
1799;SDS011;919;48.274;12.292;2023-05-07T07:28:42;9.53;;;8.73;;
1799;SDS011;919;48.274;12.292;2023-05-07T07:31:09;10.57;;;9.63;;
1799;SDS011;919;48.274;12.292;2023-05-07T07:33:36;10.57;;;9.57;;
1799;SDS011;919;48.274;12.292;2023-05-07T07:36:04;12.40;;;11.33;;
1799;SDS011;919;48.274;12.292;2023-05-07T07:38:32;11.73;;;10.60;;
1799;SDS011;919;48.274;12.292;2023-05-07T07:41:00;11.37;;;10.37;;
1799;SDS011;919;48.274;12.292;2023-05-07T07:43:28;12.07;;;10.97;;
1799;SDS011;919;48.274;12.292;2023-05-07T07:45:54;11.57;;;10.47;;
1799;SDS011;919;48.274;12.292;2023-05-07T07:48:21;15.13;;;9.83;;
1799;SDS011;919;48.274;12.292;2023-05-07T07:50:48;10.90;;;9.80;;
1799;SDS011;919;48.274;12.292;2023-05-07T07:53:16;11.33;;;10.33;;
1799;SDS011;919;48.274;12.292;2023-05-07T07:55:42;9.90;;;9.00;;
1799;SDS011;919;48.274;12.292;2023-05-07T07:58:11;10.20;;;9.23;;
1799;SDS011;919;48.274;12.292;2023-05-07T08:00:37;11.43;;;10.23;;
1799;SDS011;919;48.274;12.292;2023-05-07T08:03:04;9.40;;;8.50;;
1799;SDS011;919;48.274;12.292;2023-05-07T08:05:32;10.67;;;9.23;;
1799;SDS011;919;48.274;12.292;2023-05-07T08:07:59;11.03;;;9.33;;
1799;SDS011;919;48.274;12.292;2023-05-07T08:10:25;9.47;;;8.43;;
1799;SDS011;919;48.274;12.292;2023-05-07T08:12:52;9.60;;;8.63;;
1799;SDS011;919;48.274;12.292;2023-05-07T08:15:20;9.17;;;8.33;;
1799;SDS011;919;48.274;12.292;2023-05-07T08:17:47;8.70;;;7.77;;
1799;SDS011;919;48.274;12.292;2023-05-07T08:20:14;8.60;;;7.90;;
1799;SDS011;919;48.274;12.292;2023-05-07T08:22:40;11.63;;;8.00;;
1799;SDS011;919;48.274;12.292;2023-05-07T08:25:07;14.57;;;8.53;;
1799;SDS011;919;48.274;12.292;2023-05-07T08:27:35;8.37;;;7.67;;
1799;SDS011;919;48.274;12.292;2023-05-07T08:30:01;10.30;;;8.90;;
1799;SDS011;919;48.274;12.292;2023-05-07T08:32:30;9.57;;;7.23;;
1799;SDS011;919;48.274;12.292;2023-05-07T08:34:57;8.67;;;7.87;;
1799;SDS011;919;48.274;12.292;2023-05-07T08:37:23;8.50;;;7.80;;
1799;SDS011;919;48.274;12.292;2023-05-07T08:39:50;8.83;;;7.93;;
1799;SDS011;919;48.274;12.292;2023-05-07T08:42:17;9.80;;;8.80;;
1799;SDS011;919;48.274;12.292;2023-05-07T08:44:46;9.07;;;7.30;;
1799;SDS011;919;48.274;12.292;2023-05-07T08:47:14;8.67;;;7.87;;
1799;SDS011;919;48.274;12.292;2023-05-07T08:49:43;8.20;;;7.40;;
1799;SDS011;919;48.274;12.292;2023-05-07T08:52:11;8.60;;;7.80;;
1799;SDS011;919;48.274;12.292;2023-05-07T08:54:38;8.20;;;7.50;;
1799;SDS011;919;48.274;12.292;2023-05-07T08:57:05;8.50;;;7.70;;
1799;SDS011;919;48.274;12.292;2023-05-07T08:59:32;8.20;;;7.60;;
1799;SDS011;919;48.274;12.292;2023-05-07T09:01:58;6.50;;;6.00;;
1799;SDS011;919;48.274;12.292;2023-05-07T09:04:25;8.93;;;7.97;;
1799;SDS011;919;48.274;12.292;2023-05-07T09:06:54;7.10;;;6.50;;
1799;SDS011;919;48.274;12.292;2023-05-07T09:09:21;8.30;;;7.50;;
1799;SDS011;919;48.274;12.292;2023-05-07T09:11:48;9.90;;;8.60;;
1799;SDS011;919;48.274;12.292;2023-05-07T09:14:23;8.63;;;7.87;;
1799;SDS011;919;48.274;12.292;2023-05-07T09:16:51;8.63;;;7.93;;
1799;SDS011;919;48.274;12.292;2023-05-07T09:19:21;8.20;;;7.43;;
1799;SDS011;919;48.274;12.292;2023-05-07T09:21:48;8.90;;;7.87;;
1799;SDS011;919;48.274;12.292;2023-05-07T09:24:16;7.53;;;6.83;;
1799;SDS011;919;48.274;12.292;2023-05-07T09:26:44;8.50;;;7.40;;
1799;SDS011;919;48.274;12.292;2023-05-07T09:29:10;8.10;;;7.40;;
1799;SDS011;919;48.274;12.292;2023-05-07T09:31:37;7.80;;;7.10;;
1799;SDS011;919;48.274;12.292;2023-05-07T09:34:04;9.40;;;8.40;;
1799;SDS011;919;48.274;12.292;2023-05-07T09:36:31;8.17;;;7.37;;
1799;SDS011;919;48.274;12.292;2023-05-07T09:38:59;8.03;;;7.10;;
1799;SDS011;919;48.274;12.292;2023-05-07T09:41:27;7.63;;;6.93;;
1799;SDS011;919;48.274;12.292;2023-05-07T09:43:56;7.63;;;6.83;;
1799;SDS011;919;48.274;12.292;2023-05-07T09:46:25;7.67;;;6.97;;
1799;SDS011;919;48.274;12.292;2023-05-07T09:48:56;8.10;;;6.33;;
1799;SDS011;919;48.274;12.292;2023-05-07T09:51:24;7.73;;;7.03;;
1799;SDS011;919;48.274;12.292;2023-05-07T09:53:56;7.70;;;7.00;;
1799;SDS011;919;48.274;12.292;2023-05-07T09:56:24;7.50;;;6.73;;
1799;SDS011;919;48.274;12.292;2023-05-07T09:58:53;7.50;;;6.70;;
1799;SDS011;919;48.274;12.292;2023-05-07T10:01:22;6.80;;;6.20;;
1799;SDS011;919;48.274;12.292;2023-05-07T10:03:51;7.53;;;6.83;;
1799;SDS011;919;48.274;12.292;2023-05-07T10:06:19;6.80;;;6.17;;
1799;SDS011;919;48.274;12.292;2023-05-07T10:08:46;6.23;;;5.63;;
1799;SDS011;919;48.274;12.292;2023-05-07T10:11:14;6.80;;;6.20;;
1799;SDS011;919;48.274;12.292;2023-05-07T10:13:42;6.73;;;6.23;;
1799;SDS011;919;48.274;12.292;2023-05-07T10:16:10;6.23;;;5.67;;
1799;SDS011;919;48.274;12.292;2023-05-07T10:18:37;6.20;;;4.83;;
1799;SDS011;919;48.274;12.292;2023-05-07T10:21:06;5.03;;;4.63;;
1799;SDS011;919;48.274;12.292;2023-05-07T10:23:35;6.10;;;5.20;;
1799;SDS011;919;48.274;12.292;2023-05-07T10:26:02;7.37;;;6.67;;
1799;SDS011;919;48.274;12.292;2023-05-07T10:28:31;7.30;;;6.70;;
1799;SDS011;919;48.274;12.292;2023-05-07T10:33:59;6.13;;;5.63;;
1799;SDS011;919;48.274;12.292;2023-05-07T10:36:28;5.30;;;4.90;;
1799;SDS011;919;48.274;12.292;2023-05-07T10:38:56;5.63;;;5.00;;
1799;SDS011;919;48.274;12.292;2023-05-07T10:41:22;6.37;;;5.87;;
1799;SDS011;919;48.274;12.292;2023-05-07T10:43:49;5.70;;;5.10;;
1799;SDS011;919;48.274;12.292;2023-05-07T10:46:17;5.30;;;4.90;;
1799;SDS011;919;48.274;12.292;2023-05-07T10:51:36;6.70;;;6.17;;
1799;SDS011;919;48.274;12.292;2023-05-07T10:54:19;6.63;;;6.13;;
1799;SDS011;919;48.274;12.292;2023-05-07T10:56:47;5.53;;;4.80;;
1799;SDS011;919;48.274;12.292;2023-05-07T10:59:34;5.97;;;5.47;;
1799;SDS011;919;48.274;12.292;2023-05-07T11:02:06;7.73;;;5.03;;
1799;SDS011;919;48.274;12.292;2023-05-07T11:04:36;5.10;;;4.80;;
1799;SDS011;919;48.274;12.292;2023-05-07T11:10:02;4.80;;;4.40;;
1799;SDS011;919;48.274;12.292;2023-05-07T11:12:52;5.00;;;4.60;;
1799;SDS011;919;48.274;12.292;2023-05-07T11:15:33;5.63;;;5.13;;
1799;SDS011;919;48.274;12.292;2023-05-07T11:18:09;5.10;;;4.43;;
1799;SDS011;919;48.274;12.292;2023-05-07T11:20:48;6.80;;;4.93;;
1799;SDS011;919;48.274;12.292;2023-05-07T11:26:41;5.40;;;5.00;;
1799;SDS011;919;48.274;12.292;2023-05-07T11:29:13;5.20;;;4.80;;
1799;SDS011;919;48.274;12.292;2023-05-07T11:31:41;4.70;;;4.30;;
1799;SDS011;919;48.274;12.292;2023-05-07T11:34:08;4.73;;;4.37;;
1799;SDS011;919;48.274;12.292;2023-05-07T11:36:41;4.50;;;4.10;;
1799;SDS011;919;48.274;12.292;2023-05-07T11:39:27;3.70;;;3.40;;
1799;SDS011;919;48.274;12.292;2023-05-07T11:41:56;4.00;;;3.70;;
1799;SDS011;919;48.274;12.292;2023-05-07T11:44:23;4.33;;;3.83;;
1799;SDS011;919;48.274;12.292;2023-05-07T11:46:51;3.43;;;3.23;;
1799;SDS011;919;48.274;12.292;2023-05-07T11:49:24;4.00;;;3.70;;
1799;SDS011;919;48.274;12.292;2023-05-07T11:51:59;5.30;;;3.43;;
1799;SDS011;919;48.274;12.292;2023-05-07T11:54:26;4.43;;;4.10;;
1799;SDS011;919;48.274;12.292;2023-05-07T11:57:01;4.27;;;3.87;;
1799;SDS011;919;48.274;12.292;2023-05-07T11:59:37;3.27;;;2.97;;
1799;SDS011;919;48.274;12.292;2023-05-07T12:02:06;3.80;;;3.50;;
1799;SDS011;919;48.274;12.292;2023-05-07T12:04:32;6.50;;;3.93;;
1799;SDS011;919;48.274;12.292;2023-05-07T12:07:00;3.67;;;3.37;;
1799;SDS011;919;48.274;12.292;2023-05-07T12:09:27;3.83;;;3.30;;
1799;SDS011;919;48.274;12.292;2023-05-07T12:11:56;2.87;;;2.67;;
1799;SDS011;919;48.274;12.292;2023-05-07T12:14:26;2.90;;;2.73;;
1799;SDS011;919;48.274;12.292;2023-05-07T12:16:55;3.60;;;3.30;;
1799;SDS011;919;48.274;12.292;2023-05-07T12:19:23;3.90;;;3.60;;
1799;SDS011;919;48.274;12.292;2023-05-07T12:21:52;3.13;;;2.93;;
1799;SDS011;919;48.274;12.292;2023-05-07T12:24:20;3.60;;;3.30;;
1799;SDS011;919;48.274;12.292;2023-05-07T12:26:47;3.17;;;2.87;;
1799;SDS011;919;48.274;12.292;2023-05-07T12:29:16;3.23;;;3.00;;
1799;SDS011;919;48.274;12.292;2023-05-07T12:31:43;4.07;;;3.67;;
1799;SDS011;919;48.274;12.292;2023-05-07T12:34:11;3.30;;;3.10;;
1799;SDS011;919;48.274;12.292;2023-05-07T12:36:38;2.40;;;2.30;;
1799;SDS011;919;48.274;12.292;2023-05-07T12:39:06;2.90;;;2.50;;
1799;SDS011;919;48.274;12.292;2023-05-07T12:41:43;2.90;;;2.70;;
1799;SDS011;919;48.274;12.292;2023-05-07T12:44:19;3.37;;;2.90;;
1799;SDS011;919;48.274;12.292;2023-05-07T12:46:48;3.00;;;2.80;;
1799;SDS011;919;48.274;12.292;2023-05-07T12:49:16;2.33;;;2.13;;
1799;SDS011;919;48.274;12.292;2023-05-07T12:51:43;3.23;;;3.03;;
1799;SDS011;919;48.274;12.292;2023-05-07T12:54:13;2.93;;;2.73;;
1799;SDS011;919;48.274;12.292;2023-05-07T12:56:41;2.27;;;2.07;;
1799;SDS011;919;48.274;12.292;2023-05-07T12:59:08;2.97;;;2.77;;
1799;SDS011;919;48.274;12.292;2023-05-07T13:01:35;2.70;;;2.50;;
1799;SDS011;919;48.274;12.292;2023-05-07T13:04:02;2.90;;;2.50;;
1799;SDS011;919;48.274;12.292;2023-05-07T13:06:31;3.40;;;3.10;;
1799;SDS011;919;48.274;12.292;2023-05-07T13:09:02;2.77;;;2.57;;
1799;SDS011;919;48.274;12.292;2023-05-07T13:11:28;3.17;;;2.47;;
1799;SDS011;919;48.274;12.292;2023-05-07T13:13:56;3.40;;;2.30;;
1799;SDS011;919;48.274;12.292;2023-05-07T13:16:23;2.90;;;2.70;;
1799;SDS011;919;48.274;12.292;2023-05-07T13:18:50;2.87;;;2.73;;
1799;SDS011;919;48.274;12.292;2023-05-07T13:21:16;2.60;;;2.40;;
1799;SDS011;919;48.274;12.292;2023-05-07T13:23:43;2.30;;;2.20;;
1799;SDS011;919;48.274;12.292;2023-05-07T13:26:10;4.43;;;3.00;;
1799;SDS011;919;48.274;12.292;2023-05-07T13:28:36;2.90;;;2.60;;
1799;SDS011;919;48.274;12.292;2023-05-07T13:31:04;2.50;;;2.30;;
1799;SDS011;919;48.274;12.292;2023-05-07T13:33:31;3.60;;;2.73;;
1799;SDS011;919;48.274;12.292;2023-05-07T13:35:58;3.07;;;2.53;;
1799;SDS011;919;48.274;12.292;2023-05-07T13:38:25;2.50;;;2.30;;
1799;SDS011;919;48.274;12.292;2023-05-07T13:40:52;2.80;;;2.60;;
1799;SDS011;919;48.274;12.292;2023-05-07T13:43:19;2.80;;;2.60;;
1799;SDS011;919;48.274;12.292;2023-05-07T13:45:46;2.63;;;2.43;;
1799;SDS011;919;48.274;12.292;2023-05-07T13:48:14;2.97;;;2.77;;
1799;SDS011;919;48.274;12.292;2023-05-07T13:50:42;3.10;;;2.90;;
1799;SDS011;919;48.274;12.292;2023-05-07T13:53:09;2.80;;;2.60;;
1799;SDS011;919;48.274;12.292;2023-05-07T13:55:37;2.67;;;2.47;;
1799;SDS011;919;48.274;12.292;2023-05-07T13:58:04;2.67;;;2.20;;
1799;SDS011;919;48.274;12.292;2023-05-07T14:00:32;2.27;;;2.07;;
1799;SDS011;919;48.274;12.292;2023-05-07T14:03:00;2.77;;;2.57;;
1799;SDS011;919;48.274;12.292;2023-05-07T14:05:28;2.30;;;2.20;;
1799;SDS011;919;48.274;12.292;2023-05-07T14:07:55;2.50;;;2.30;;
1799;SDS011;919;48.274;12.292;2023-05-07T14:10:23;3.00;;;2.73;;
1799;SDS011;919;48.274;12.292;2023-05-07T14:12:50;2.30;;;2.20;;
1799;SDS011;919;48.274;12.292;2023-05-07T14:15:17;2.77;;;2.57;;
1799;SDS011;919;48.274;12.292;2023-05-07T14:17:44;3.33;;;3.03;;
1799;SDS011;919;48.274;12.292;2023-05-07T14:20:11;2.40;;;2.27;;
1799;SDS011;919;48.274;12.292;2023-05-07T14:22:44;2.87;;;2.63;;
1799;SDS011;919;48.274;12.292;2023-05-07T14:25:18;2.20;;;2.10;;
1799;SDS011;919;48.274;12.292;2023-05-07T14:27:44;2.50;;;2.30;;
1799;SDS011;919;48.274;12.292;2023-05-07T14:30:12;4.10;;;2.87;;
1799;SDS011;919;48.274;12.292;2023-05-07T14:32:39;5.17;;;2.57;;
1799;SDS011;919;48.274;12.292;2023-05-07T14:35:06;2.67;;;2.47;;
1799;SDS011;919;48.274;12.292;2023-05-07T14:37:33;2.43;;;2.30;;
1799;SDS011;919;48.274;12.292;2023-05-07T14:40:01;3.00;;;2.80;;
1799;SDS011;919;48.274;12.292;2023-05-07T14:42:28;3.70;;;2.60;;
1799;SDS011;919;48.274;12.292;2023-05-07T14:44:55;2.77;;;2.57;;
1799;SDS011;919;48.274;12.292;2023-05-07T14:47:22;2.47;;;2.30;;
1799;SDS011;919;48.274;12.292;2023-05-07T14:49:48;2.77;;;2.57;;
1799;SDS011;919;48.274;12.292;2023-05-07T14:52:15;3.40;;;3.13;;
1799;SDS011;919;48.274;12.292;2023-05-07T14:54:42;2.43;;;2.23;;
1799;SDS011;919;48.274;12.292;2023-05-07T14:57:10;2.90;;;2.03;;
1799;SDS011;919;48.274;12.292;2023-05-07T14:59:38;1.90;;;1.80;;
1799;SDS011;919;48.274;12.292;2023-05-07T15:02:05;2.60;;;2.33;;
1799;SDS011;919;48.274;12.292;2023-05-07T15:04:32;2.50;;;2.30;;
1799;SDS011;919;48.274;12.292;2023-05-07T15:06:59;2.10;;;1.90;;
1799;SDS011;919;48.274;12.292;2023-05-07T15:09:26;2.30;;;2.10;;
1799;SDS011;919;48.274;12.292;2023-05-07T15:11:53;2.30;;;2.10;;
1799;SDS011;919;48.274;12.292;2023-05-07T15:14:21;2.67;;;2.50;;
1799;SDS011;919;48.274;12.292;2023-05-07T15:16:48;2.17;;;2.00;;
1799;SDS011;919;48.274;12.292;2023-05-07T15:19:14;2.53;;;2.33;;
1799;SDS011;919;48.274;12.292;2023-05-07T15:21:41;2.23;;;2.13;;
1799;SDS011;919;48.274;12.292;2023-05-07T15:24:08;2.47;;;2.27;;
1799;SDS011;919;48.274;12.292;2023-05-07T15:26:35;2.43;;;2.27;;
1799;SDS011;919;48.274;12.292;2023-05-07T15:29:01;2.50;;;2.30;;
1799;SDS011;919;48.274;12.292;2023-05-07T15:31:34;2.73;;;2.50;;